Time;durP1;ratioP1;P1;durP2;ratioP2;P2;SDS_P1;SDS_P2;PMS_P1;PMS_P2;Temp;Humidity;BMP_temperature;BMP_pressure;BME280_temperature;BME280_humidity;BME280_pressure;Samples;Min_cycle;Max_cycle;Signal;HPM_P1;HPM_P2
2022/11/01 00:01:06;;;;;;;;;;;;;;;0.91;71.60;99503.16;5077687;28;19931;-63
2022/11/01 00:03:32;;;;;;;;;;;;;;;0.83;71.42;99495.34;5074088;28;20336;-66
2022/11/01 00:05:58;;;;;;;;;;;;;;;0.82;71.12;99504.47;5087135;28;19998;-66
2022/11/01 00:08:24;;;;;;;;;;;;;;;0.81;70.74;99497.44;5102245;28;20322;-66
2022/11/01 00:10:49;;;;;;;;;;;;;;;0.78;70.78;99512.16;5103425;28;19928;-66
2022/11/01 00:13:15;;;;;;;;;;;;;;;0.81;71.04;99510.91;5106373;28;19927;-66
2022/11/01 00:15:41;;;;;;;;;;;;;;;0.82;71.46;99513.34;5106842;28;19928;-66
2022/11/01 00:18:08;;;;;;;;;;;;;;;0.80;70.88;99523.53;5106698;28;19966;-65
2022/11/01 00:20:34;;;;;;;;;;;;;;;0.80;70.41;99522.72;5103686;28;19934;-66
2022/11/01 00:23:00;;;;;;;;;;;;;;;0.78;70.83;99516.69;5083580;28;20034;-65
2022/11/01 00:25:25;;;;;;;;;;;;;;;0.74;70.98;99508.25;5096761;28;19927;-63
2022/11/01 00:27:51;;;;;;;;;;;;;;;0.67;70.68;99508.28;5098593;28;19934;-61
2022/11/01 00:30:17;;;;;;;;;;;;;;;0.64;70.38;99519.50;5084907;28;19982;-63
2022/11/01 00:32:42;;;;;;;;;;;;;;;0.67;70.34;99513.69;5103735;28;19980;-63
2022/11/01 00:35:09;;;;;;;;;;;;;;;0.67;70.06;99523.59;5101389;28;19970;-63
2022/11/01 00:37:35;;;;;;;;;;;;;;;0.68;69.68;99515.31;5104195;28;19928;-63
2022/11/01 00:40:01;;;;;;;;;;;;;;;0.65;70.28;99536.44;5109337;28;19980;-63
2022/11/01 00:42:27;;;;;;;;;;;;;;;0.63;70.74;99543.91;5108191;28;20517;-64
2022/11/01 00:44:53;;;;;;;;;;;;;;;0.62;70.68;99526.94;5090837;28;20030;-63
2022/11/01 00:47:19;;;;;;;;;;;;;;;0.59;70.24;99530.06;5105469;28;19970;-63
2022/11/01 00:49:44;;;;;;;;;;;;;;;0.55;70.63;99536.94;5100448;28;19928;-63
2022/11/01 00:52:12;;;;;;;;;;;;;;;0.54;71.31;99533.41;5086533;28;19928;-63
2022/11/01 00:54:37;;;;;;;;;;;;;;;0.50;70.79;99542.13;5106934;28;19928;-63
2022/11/01 00:57:03;;;;;;;;;;;;;;;0.47;70.41;99539.84;5106741;28;20371;-63
2022/11/01 00:59:28;;;;;;;;;;;;;;;0.45;70.05;99533.88;5107322;28;19980;-64
2022/11/01 01:01:54;;;;;;;;;;;;;;;0.47;70.05;99531.78;5109762;28;19928;-63
2022/11/01 01:04:20;;;;;;;;;;;;;;;0.48;70.07;99531.56;5089459;28;20026;-64
2022/11/01 01:06:45;;;;;;;;;;;;;;;0.48;69.93;99539.66;5109963;28;19928;-65
2022/11/01 01:09:12;;;;;;;;;;;;;;;0.49;69.69;99543.19;5107061;28;19932;-63
2022/11/01 01:11:38;;;;;;;;;;;;;;;0.49;69.53;99538.59;5110574;27;20399;-63
2022/11/01 01:14:04;;;;;;;;;;;;;;;0.52;69.79;99545.44;5106027;27;19932;-63
2022/11/01 01:16:29;;;;;;;;;;;;;;;0.55;69.76;99551.22;5108681;28;19928;-63
2022/11/01 01:18:56;;;;;;;;;;;;;;;0.56;69.64;99550.19;5107572;28;20438;-63
2022/11/01 01:21:22;;;;;;;;;;;;;;;0.59;69.83;99556.97;5109905;28;19934;-63
2022/11/01 01:23:47;;;;;;;;;;;;;;;0.61;69.72;99552.19;5108354;28;19928;-63
2022/11/01 01:26:14;;;;;;;;;;;;;;;0.64;69.92;99542.88;5103977;28;19928;-64
2022/11/01 01:28:40;;;;;;;;;;;;;;;0.64;70.00;99553.63;5086600;28;19965;-64
2022/11/01 01:31:06;;;;;;;;;;;;;;;0.63;69.88;99552.84;5085555;28;20370;-63
2022/11/01 01:33:34;;;;;;;;;;;;;;;0.64;69.79;99553.63;5084268;28;20220;-63
2022/11/01 01:36:00;;;;;;;;;;;;;;;0.61;69.63;99554.09;5093566;28;20043;-66
2022/11/01 01:38:26;;;;;;;;;;;;;;;0.58;68.77;99533.00;5109494;28;19928;-64
2022/11/01 01:40:52;;;;;;;;;;;;;;;0.55;68.94;99545.00;5106561;28;19928;-63
2022/11/01 01:43:19;;;;;;;;;;;;;;;0.57;68.98;99548.28;5105441;28;20019;-63
2022/11/01 01:45:45;;;;;;;;;;;;;;;0.59;68.74;99537.31;5105663;28;19928;-63
2022/11/01 01:48:14;;;;;;;;;;;;;;;0.61;68.58;99549.50;5104108;28;19927;-64
2022/11/01 01:50:43;;;;;;;;;;;;;;;0.59;68.35;99545.41;5104143;28;19928;-63
2022/11/01 01:53:12;;;;;;;;;;;;;;;0.57;68.19;99542.91;5104782;28;19934;-64
2022/11/01 01:55:40;;;;;;;;;;;;;;;0.27;68.04;99517.41;5105548;28;19928;-63
2022/11/01 01:58:08;;;;;;;;;;;;;;;0.58;68.21;99554.50;5107329;28;19927;-63
2022/11/01 02:00:35;;;;;;;;;;;;;;;0.58;68.33;99566.09;5089641;28;19928;-63
2022/11/01 02:03:05;;;;;;;;;;;;;;;0.58;68.50;99562.59;5107762;28;20280;-64
2022/11/01 02:05:35;;;;;;;;;;;;;;;0.60;68.78;99571.25;5107136;28;19951;-64
2022/11/01 02:08:01;;;;;;;;;;;;;;;0.61;68.54;99576.41;5105673;28;20394;-63
2022/11/01 02:10:28;;;;;;;;;;;;;;;0.61;68.59;99562.97;5108370;28;19942;-67
2022/11/01 02:12:55;;;;;;;;;;;;;;;0.59;68.42;99558.84;5108504;28;19963;-64
2022/11/01 02:15:23;;;;;;;;;;;;;;;0.55;68.14;99553.06;5108538;27;19939;-63
2022/11/01 02:18:17;;;;;;;;;;;;;;;0.54;68.49;99570.25;5087054;28;19928;-63
2022/11/01 02:20:51;;;;;;;;;;;;;;;0.53;68.51;99569.41;5106017;28;20038;-64
2022/11/01 02:23:30;;;;;;;;;;;;;;;0.54;68.36;99573.75;5106666;28;19931;-64
2022/11/01 02:26:06;;;;;;;;;;;;;;;0.54;68.24;99579.13;5108051;28;20766;-63
2022/11/01 02:28:40;;;;;;;;;;;;;;;0.54;68.31;99578.31;5106165;28;20034;-63
2022/11/01 02:31:14;;;;;;;;;;;;;;;0.56;68.35;99577.09;5097444;28;19928;-66
2022/11/01 02:33:43;;;;;;;;;;;;;;;0.56;68.17;99585.16;5082978;28;19997;-66
2022/11/01 02:36:14;;;;;;;;;;;;;;;0.52;68.11;99585.78;5066984;28;20023;-66
2022/11/01 02:38:46;;;;;;;;;;;;;;;0.51;67.94;99586.84;5084888;28;19928;-66
2022/11/01 02:41:14;;;;;;;;;;;;;;;0.48;67.81;99581.88;5083168;28;19935;-66
2022/11/01 02:43:44;;;;;;;;;;;;;;;0.44;67.90;99583.31;5065514;28;20335;-66
2022/11/01 02:48:57;;;;;;;;;;;;;;;0.47;67.95;99591.81;5082761;28;20487;-66
2022/11/01 02:51:24;;;;;;;;;;;;;;;0.47;67.93;99586.44;5085487;28;20370;-64
2022/11/01 02:53:50;;;;;;;;;;;;;;;0.50;68.04;99587.88;5082734;28;19935;-64
2022/11/01 02:56:16;;;;;;;;;;;;;;;0.51;67.47;99584.94;5083091;28;19928;-63
2022/11/01 02:58:43;;;;;;;;;;;;;;;0.50;67.60;99580.63;5085294;28;20323;-63
2022/11/01 03:01:14;;;;;;;;;;;;;;;0.49;67.38;99584.34;5085893;28;19997;-63
2022/11/01 03:03:41;;;;;;;;;;;;;;;0.48;67.54;99590.75;5087908;28;20249;-63
2022/11/01 03:06:11;;;;;;;;;;;;;;;0.44;67.07;99581.47;5083112;28;19967;-63
2022/11/01 03:08:39;;;;;;;;;;;;;;;0.42;67.21;99591.63;5085022;28;19932;-64
2022/11/01 03:11:07;;;;;;;;;;;;;;;0.41;67.52;99592.66;5088142;28;19932;-63
2022/11/01 03:13:51;;;;;;;;;;;;;;;0.43;67.60;99598.66;5068607;28;20456;-63
2022/11/01 03:16:20;;;;;;;;;;;;;;;0.42;67.27;99605.09;5069063;28;19934;-64
2022/11/01 03:18:53;;;;;;;;;;;;;;;0.39;67.51;99600.94;5064798;28;20042;-63
2022/11/01 03:21:22;;;;;;;;;;;;;;;0.38;67.44;99601.13;5067697;28;20019;-63
2022/11/01 03:23:50;;;;;;;;;;;;;;;0.38;67.23;99606.53;5085082;28;19994;-65
2022/11/01 03:26:20;;;;;;;;;;;;;;;0.35;67.42;99610.47;5085193;28;19935;-66
2022/11/01 03:28:48;;;;;;;;;;;;;;;0.29;67.49;99614.00;5082648;28;19935;-64
2022/11/01 03:31:16;;;;;;;;;;;;;;;0.24;67.99;99622.72;5083836;28;19927;-64
2022/11/01 03:33:45;;;;;;;;;;;;;;;0.20;68.48;99607.22;5085481;28;20026;-64
2022/11/01 03:36:13;;;;;;;;;;;;;;;0.19;68.97;99606.38;5085861;28;20487;-64
2022/11/01 03:38:43;;;;;;;;;;;;;;;0.24;69.03;99624.56;5085733;28;19974;-64
2022/11/01 03:41:11;;;;;;;;;;;;;;;0.26;69.22;99622.50;5095746;28;19932;-64
2022/11/01 03:43:36;;;;;;;;;;;;;;;0.27;69.30;99618.78;5091773;28;19930;-64
2022/11/01 03:46:02;;;;;;;;;;;;;;;0.25;69.46;99621.69;5088592;28;19973;-64
2022/11/01 03:48:28;;;;;;;;;;;;;;;0.23;69.56;99618.34;5083625;28;19932;-68
2022/11/01 03:50:56;;;;;;;;;;;;;;;0.24;69.27;99617.34;5085201;28;19932;-64
2022/11/01 03:53:22;;;;;;;;;;;;;;;0.26;69.32;99617.13;5083227;28;19928;-64
2022/11/01 03:55:50;;;;;;;;;;;;;;;0.30;68.94;99610.28;5085609;28;19939;-66
2022/11/01 03:58:15;;;;;;;;;;;;;;;0.31;68.86;99614.59;5066541;28;20035;-65
2022/11/01 04:00:42;;;;;;;;;;;;;;;0.30;68.55;99612.16;5083573;28;20058;-66
2022/11/01 04:03:08;;;;;;;;;;;;;;;0.25;68.78;99610.09;5081300;28;19932;-66
2022/11/01 04:05:35;;;;;;;;;;;;;;;0.21;68.91;99604.31;5083604;28;19935;-66
2022/11/01 04:08:01;;;;;;;;;;;;;;;0.19;69.05;99603.69;5102082;28;19957;-66
2022/11/01 04:10:28;;;;;;;;;;;;;;;0.19;69.16;99601.00;5104212;28;19931;-66
2022/11/01 04:12:55;;;;;;;;;;;;;;;0.18;69.44;99620.06;5103245;28;19927;-66
2022/11/01 04:20:55;;;;;;;;;;;;;;;0.13;69.21;99609.91;5109275;28;19971;-66
2022/11/01 04:23:20;;;;;;;;;;;;;;;0.17;69.24;99613.03;5106798;28;19951;-66
2022/11/01 04:25:46;;;;;;;;;;;;;;;0.18;69.32;99617.38;5107830;28;20105;-66
2022/11/01 04:28:14;;;;;;;;;;;;;;;0.21;69.35;99604.31;5106059;28;20413;-66
2022/11/01 04:30:40;;;;;;;;;;;;;;;0.26;69.23;99614.44;5099966;28;20023;-65
2022/11/01 04:33:06;;;;;;;;;;;;;;;0.25;69.21;99616.31;5086502;28;20407;-65
2022/11/01 04:35:31;;;;;;;;;;;;;;;0.27;69.19;99618.78;5088001;28;20441;-64
2022/11/01 04:37:57;;;;;;;;;;;;;;;0.29;69.03;99622.06;5088127;28;20327;-64
2022/11/01 04:40:23;;;;;;;;;;;;;;;0.27;68.93;99625.00;5087593;28;19966;-66
2022/11/01 04:42:49;;;;;;;;;;;;;;;0.28;69.05;99623.94;5087843;28;19928;-67
2022/11/01 04:45:16;;;;;;;;;;;;;;;0.32;69.00;99626.22;5080677;28;20056;-64
2022/11/01 04:47:49;;;;;;;;;;;;;;;0.34;68.97;99616.06;5086649;28;19928;-64
2022/11/01 04:50:15;;;;;;;;;;;;;;;0.27;68.67;99632.22;5086221;28;19932;-64
2022/11/01 04:52:41;;;;;;;;;;;;;;;0.24;68.61;99635.34;5088223;28;20471;-64
2022/11/01 04:55:07;;;;;;;;;;;;;;;0.26;68.40;99627.88;5068185;28;19932;-66
2022/11/01 04:57:36;;;;;;;;;;;;;;;0.30;68.35;99639.84;5070497;28;19973;-64
2022/11/01 05:00:02;;;;;;;;;;;;;;;0.33;68.40;99634.09;5092118;28;19928;-64
2022/11/01 05:02:30;;;;;;;;;;;;;;;0.35;68.22;99640.06;5101714;28;19931;-65
2022/11/01 05:04:56;;;;;;;;;;;;;;;0.35;68.13;99637.38;5092429;28;19932;-67
2022/11/01 05:07:22;;;;;;;;;;;;;;;0.34;68.05;99645.66;5088467;28;19928;-66
2022/11/01 05:09:48;;;;;;;;;;;;;;;0.33;67.84;99634.09;5087808;28;19993;-66
2022/11/01 05:12:13;;;;;;;;;;;;;;;0.34;67.73;99643.81;5086259;28;19957;-66
2022/11/01 05:14:39;;;;;;;;;;;;;;;0.33;67.55;99650.22;5073103;28;20462;-66
2022/11/01 05:17:05;;;;;;;;;;;;;;;0.32;67.30;99637.81;5086234;28;20619;-66
2022/11/01 05:19:32;;;;;;;;;;;;;;;0.29;67.21;99638.22;5084385;28;19928;-65
2022/11/01 05:21:58;;;;;;;;;;;;;;;0.26;67.27;99647.53;5084062;28;20422;-66
2022/11/01 05:24:24;;;;;;;;;;;;;;;0.23;67.41;99657.88;5084999;28;19969;-64
2022/11/01 05:26:50;;;;;;;;;;;;;;;0.22;67.66;99670.50;5088867;28;20509;-64
2022/11/01 05:29:16;;;;;;;;;;;;;;;0.23;67.87;99660.56;5088744;28;19935;-63
2022/11/01 05:31:41;;;;;;;;;;;;;;;0.25;67.43;99659.34;5087771;28;19950;-63
2022/11/01 05:34:07;;;;;;;;;;;;;;;0.26;67.38;99655.63;5086154;28;19927;-66
2022/11/01 05:36:35;;;;;;;;;;;;;;;0.27;67.53;99651.03;5086253;28;19969;-67
2022/11/01 05:39:01;;;;;;;;;;;;;;;0.30;67.87;99656.00;5085427;28;19936;-64
2022/11/01 05:41:27;;;;;;;;;;;;;;;0.35;67.66;99658.06;5084108;28;19969;-65
2022/11/01 05:43:52;;;;;;;;;;;;;;;0.39;67.88;99654.75;5067665;28;19934;-66
2022/11/01 05:46:18;;;;;;;;;;;;;;;0.44;67.80;99658.66;5085951;28;20410;-66
2022/11/01 05:48:44;;;;;;;;;;;;;;;0.50;67.95;99657.81;5084639;28;19935;-67
2022/11/01 05:51:10;;;;;;;;;;;;;;;0.56;67.79;99656.97;5084158;28;19935;-66
2022/11/01 05:53:37;;;;;;;;;;;;;;;0.57;67.71;99650.53;5085170;28;19951;-66
2022/11/01 05:56:03;;;;;;;;;;;;;;;0.57;67.73;99655.94;5087148;28;19928;-66
2022/11/01 05:58:29;;;;;;;;;;;;;;;0.55;67.88;99655.31;5084069;28;19950;-66
2022/11/01 06:00:56;;;;;;;;;;;;;;;0.56;67.65;99660.50;5091077;28;19938;-66
2022/11/01 06:03:22;;;;;;;;;;;;;;;0.54;67.68;99665.25;5106058;28;19934;-66
2022/11/01 06:05:48;;;;;;;;;;;;;;;0.54;67.59;99659.06;5108766;28;20368;-63
2022/11/01 06:08:14;;;;;;;;;;;;;;;0.54;67.56;99662.56;5098266;28;19928;-64
2022/11/01 06:10:42;;;;;;;;;;;;;;;0.56;67.67;99665.03;5084566;28;19932;-64
2022/11/01 06:13:08;;;;;;;;;;;;;;;0.55;67.61;99649.94;5086401;28;19936;-66
2022/11/01 06:15:34;;;;;;;;;;;;;;;0.57;67.67;99669.38;5085699;28;20369;-66
2022/11/01 06:18:00;;;;;;;;;;;;;;;0.59;67.76;99661.09;5085978;28;19951;-66
2022/11/01 06:20:27;;;;;;;;;;;;;;;0.60;67.52;99663.56;5085740;28;19971;-66
2022/11/01 06:22:52;;;;;;;;;;;;;;;0.60;67.58;99668.13;5087253;28;19967;-66
2022/11/01 06:25:18;;;;;;;;;;;;;;;0.60;67.94;99668.94;5086840;28;19979;-64
2022/11/01 06:27:46;;;;;;;;;;;;;;;0.62;67.98;99674.94;5086117;28;19928;-64
2022/11/01 06:30:12;;;;;;;;;;;;;;;0.65;67.90;99676.41;5093593;28;19967;-64
2022/11/01 06:32:37;;;;;;;;;;;;;;;0.67;68.00;99680.53;5104824;28;19965;-65
2022/11/01 06:35:03;;;;;;;;;;;;;;;0.66;67.95;99678.88;5098448;28;19935;-64
2022/11/01 06:37:30;;;;;;;;;;;;;;;0.66;68.17;99678.88;5105102;28;19927;-66
2022/11/01 06:39:56;;;;;;;;;;;;;;;0.51;68.08;99654.09;5103402;28;19932;-64
2022/11/01 06:42:23;;;;;;;;;;;;;;;0.66;67.91;99672.66;5089881;28;20422;-64
2022/11/01 06:44:50;;;;;;;;;;;;;;;0.66;68.13;99689.66;5094773;28;20409;-63
2022/11/01 06:47:16;;;;;;;;;;;;;;;0.69;68.26;99686.53;5105235;28;20000;-64
2022/11/01 06:49:42;;;;;;;;;;;;;;;0.71;68.12;99697.09;5104640;28;19978;-66
2022/11/01 06:52:08;;;;;;;;;;;;;;;0.75;68.04;99692.09;5104970;28;19932;-66
2022/11/01 06:54:35;;;;;;;;;;;;;;;0.78;68.00;99695.19;5087086;28;19928;-66
2022/11/01 06:57:00;;;;;;;;;;;;;;;0.82;67.97;99699.09;5105637;28;19927;-66
2022/11/01 06:59:27;;;;;;;;;;;;;;;0.85;67.96;99701.38;5107465;28;19928;-67
2022/11/01 07:01:54;;;;;;;;;;;;;;;0.90;67.96;99697.22;5105963;28;19927;-66
2022/11/01 07:04:20;;;;;;;;;;;;;;;0.90;67.97;99689.16;5105385;28;20033;-64
2022/11/01 07:06:46;;;;;;;;;;;;;;;0.91;67.90;99693.50;5096902;28;20026;-64
2022/11/01 07:09:12;;;;;;;;;;;;;;;0.93;68.09;99691.41;5089956;28;19972;-66
2022/11/01 07:11:38;;;;;;;;;;;;;;;0.96;67.94;99686.44;5099992;28;19934;-66
2022/11/01 07:14:04;;;;;;;;;;;;;;;0.98;67.96;99689.72;5095277;28;19928;-64
2022/11/01 07:16:30;;;;;;;;;;;;;;;0.98;67.64;99687.03;5098095;28;19999;-64
2022/11/01 07:18:57;;;;;;;;;;;;;;;0.96;67.57;99686.44;5104861;28;20427;-64
2022/11/01 07:21:23;;;;;;;;;;;;;;;0.95;67.53;99687.47;5096088;28;20026;-63
2022/11/01 07:23:49;;;;;;;;;;;;;;;0.97;67.59;99690.78;5091692;28;20346;-64
2022/11/01 07:26:15;;;;;;;;;;;;;;;1.05;67.39;99694.25;5086011;28;19928;-64
2022/11/01 07:28:41;;;;;;;;;;;;;;;0.95;67.33;99676.69;5085585;28;19971;-66
2022/11/01 07:31:07;;;;;;;;;;;;;;;1.12;67.12;99695.06;5085259;28;20439;-66
2022/11/01 07:33:33;;;;;;;;;;;;;;;1.10;67.35;99700.66;5085393;28;19932;-63
2022/11/01 07:36:00;;;;;;;;;;;;;;;1.16;67.37;99698.97;4732110;27;9999711;-66
2022/11/01 07:38:26;;;;;;;;;;;;;;;1.20;67.55;99702.88;5090245;28;19978;-67
2022/11/01 07:40:53;;;;;;;;;;;;;;;1.21;67.63;99701.81;5081325;28;19928;-64
2022/11/01 07:43:19;;;;;;;;;;;;;;;1.23;67.07;99697.06;5082416;28;19928;-66
2022/11/01 07:45:45;;;;;;;;;;;;;;;1.24;66.79;99701.41;5083393;28;20023;-64
2022/11/01 07:48:12;;;;;;;;;;;;;;;1.23;66.72;99701.63;5101698;28;19927;-64
2022/11/01 07:50:38;;;;;;;;;;;;;;;1.22;66.33;99708.06;5078775;28;20371;-64
2022/11/01 07:53:06;;;;;;;;;;;;;;;1.20;66.42;99704.75;5105571;28;20032;-64
2022/11/01 07:55:32;;;;;;;;;;;;;;;1.20;66.25;99691.28;5106049;28;19934;-64
2022/11/01 07:57:58;;;;;;;;;;;;;;;1.22;66.20;99700.78;5112243;28;19927;-63
2022/11/01 08:00:24;;;;;;;;;;;;;;;1.29;66.23;99703.44;5090689;28;20399;-63
2022/11/01 08:02:49;;;;;;;;;;;;;;;1.38;65.91;99701.31;5106525;28;19973;-64
2022/11/01 08:05:15;;;;;;;;;;;;;;;1.49;65.70;99699.81;5099000;28;19928;-66
2022/11/01 08:07:41;;;;;;;;;;;;;;;1.60;65.37;99704.50;5110043;28;20445;-66
2022/11/01 08:10:10;;;;;;;;;;;;;;;1.61;65.45;99699.94;5086737;28;19964;-66
2022/11/01 08:12:36;;;;;;;;;;;;;;;1.41;65.73;99682.84;5097827;28;19981;-66
2022/11/01 08:15:02;;;;;;;;;;;;;;;1.52;65.86;99702.09;5089663;28;20352;-66
2022/11/01 08:17:29;;;;;;;;;;;;;;;1.53;66.10;99709.13;5087998;28;19928;-66
2022/11/01 08:19:55;;;;;;;;;;;;;;;1.50;66.14;99707.69;5091255;28;20527;-66
2022/11/01 08:22:21;;;;;;;;;;;;;;;1.47;66.08;99709.97;5094380;28;19954;-66
2022/11/01 08:24:47;;;;;;;;;;;;;;;1.46;66.12;99711.00;5097185;28;20052;-63
2022/11/01 08:27:14;;;;;;;;;;;;;;;1.47;66.18;99709.97;5093446;28;19951;-63
2022/11/01 08:29:40;;;;;;;;;;;;;;;1.47;66.20;99708.13;5087552;28;20315;-64
2022/11/01 08:32:07;;;;;;;;;;;;;;;1.46;66.15;99698.38;5100401;28;20052;-66
2022/11/01 08:34:33;;;;;;;;;;;;;;;1.46;66.29;99701.06;5107939;28;20121;-63
2022/11/01 08:36:58;;;;;;;;;;;;;;;1.46;66.19;99703.78;5108064;28;19927;-64
2022/11/01 08:39:24;;;;;;;;;;;;;;;1.46;66.17;99711.84;5106468;28;19935;-64
2022/11/01 08:41:51;;;;;;;;;;;;;;;1.47;66.15;99707.28;5107040;28;19952;-66
2022/11/01 08:44:19;;;;;;;;;;;;;;;1.52;65.90;99705.59;5107220;28;20413;-66
2022/11/01 08:46:45;;;;;;;;;;;;;;;1.61;66.08;99708.84;5107787;28;19928;-66
2022/11/01 08:49:11;;;;;;;;;;;;;;;1.72;66.00;99709.19;5108806;28;19928;-64
2022/11/01 08:51:37;;;;;;;;;;;;;;;1.82;65.47;99714.94;5107693;28;19980;-66
2022/11/01 08:54:04;;;;;;;;;;;;;;;1.87;64.60;99708.88;5083078;28;19988;-66
2022/11/01 08:56:30;;;;;;;;;;;;;;;1.85;63.96;99706.41;5098288;28;19928;-72
2022/11/01 08:58:56;;;;;;;;;;;;;;;1.84;63.86;99702.06;5095755;28;19996;-66
2022/11/01 09:01:25;;;;;;;;;;;;;;;1.81;63.38;99697.13;5089180;28;19928;-69
2022/11/01 09:03:54;;;;;;;;;;;;;;;1.79;63.79;99707.25;5087472;28;20429;-66
2022/11/01 09:06:19;;;;;;;;;;;;;;;1.80;63.95;99704.38;5091204;28;19978;-66
2022/11/01 09:08:45;;;;;;;;;;;;;;;1.84;63.92;99702.88;5092707;28;20285;-66
2022/11/01 09:11:11;;;;;;;;;;;;;;;1.85;64.09;99709.09;5095938;27;19927;-66
2022/11/01 09:13:37;;;;;;;;;;;;;;;1.87;64.40;99707.00;5089327;28;20410;-66
2022/11/01 09:16:04;;;;;;;;;;;;;;;1.95;64.38;99712.16;5086511;28;20232;-66
2022/11/01 09:18:32;;;;;;;;;;;;;;;2.03;64.05;99708.34;5089881;28;19928;-66
2022/11/01 09:20:57;;;;;;;;;;;;;;;2.10;63.99;99705.56;5089713;28;19944;-66
2022/11/01 09:23:23;;;;;;;;;;;;;;;2.16;63.81;99702.00;5091062;28;20049;-66
2022/11/01 09:25:49;;;;;;;;;;;;;;;2.21;63.62;99704.84;5093681;28;20034;-66
2022/11/01 09:28:14;;;;;;;;;;;;;;;2.13;62.96;99715.94;5098009;28;19970;-66
2022/11/01 09:30:40;;;;;;;;;;;;;;;2.10;62.78;99709.09;5099188;28;20115;-64
2022/11/01 09:33:06;;;;;;;;;;;;;;;2.09;62.70;99706.59;5111677;28;19973;-65
2022/11/01 09:35:34;;;;;;;;;;;;;;;2.06;62.55;99710.59;5112824;28;20401;-64
2022/11/01 09:38:00;;;;;;;;;;;;;;;2.08;62.33;99711.19;5095042;28;19927;-64
2022/11/01 09:40:27;;;;;;;;;;;;;;;2.10;62.50;99710.97;5110052;28;20354;-63
2022/11/01 09:42:53;;;;;;;;;;;;;;;2.16;62.08;99703.84;5111745;28;20363;-64
2022/11/01 09:45:20;;;;;;;;;;;;;;;2.12;61.98;99709.69;5109739;28;19928;-64
2022/11/01 09:47:49;;;;;;;;;;;;;;;2.15;61.90;99715.69;5111527;28;19928;-65
2022/11/01 09:50:17;;;;;;;;;;;;;;;2.20;61.93;99708.59;5110934;28;19927;-64
2022/11/01 09:52:44;;;;;;;;;;;;;;;2.21;61.91;99712.94;5101536;27;19928;-64
2022/11/01 09:55:13;;;;;;;;;;;;;;;2.22;61.70;99709.19;5110241;28;19992;-64
2022/11/01 09:57:42;;;;;;;;;;;;;;;2.23;61.80;99710.03;5109820;28;20440;-64
2022/11/01 10:00:14;;;;;;;;;;;;;;;2.24;61.80;99707.09;5107775;28;20148;-64
2022/11/01 10:02:59;;;;;;;;;;;;;;;2.26;61.77;99698.78;5110401;28;19935;-64
2022/11/01 10:05:31;;;;;;;;;;;;;;;2.34;61.09;99697.69;5110316;28;19924;-64
2022/11/01 10:08:02;;;;;;;;;;;;;;;2.31;61.13;99698.13;5094416;28;19928;-64
2022/11/01 10:10:33;;;;;;;;;;;;;;;2.30;61.02;99699.19;5088878;28;20009;-64
2022/11/01 10:13:05;;;;;;;;;;;;;;;2.34;60.96;99695.81;5087313;28;20486;-64
2022/11/01 10:15:35;;;;;;;;;;;;;;;2.32;61.00;99699.78;5089936;28;19934;-64
2022/11/01 10:18:06;;;;;;;;;;;;;;;2.25;61.37;99697.94;5090500;28;19981;-64
2022/11/01 10:20:36;;;;;;;;;;;;;;;2.24;61.39;99701.69;5102696;28;19928;-64
2022/11/01 10:23:04;;;;;;;;;;;;;;;2.29;61.54;99706.44;5094043;28;20022;-64
2022/11/01 10:25:31;;;;;;;;;;;;;;;2.33;61.79;99709.53;5092815;28;19928;-64
2022/11/01 10:28:04;;;;;;;;;;;;;;;2.34;61.77;99703.91;5094836;28;19953;-66
2022/11/01 10:30:33;;;;;;;;;;;;;;;2.29;61.71;99703.75;5091954;28;19928;-66
2022/11/01 10:33:02;;;;;;;;;;;;;;;2.23;61.96;99700.06;5089807;28;20034;-66
2022/11/01 10:35:30;;;;;;;;;;;;;;;2.18;62.19;99708.00;5091126;28;20387;-66
2022/11/01 10:37:58;;;;;;;;;;;;;;;2.16;62.21;99707.41;5089398;28;19935;-66
2022/11/01 10:40:28;;;;;;;;;;;;;;;2.15;62.40;99707.59;5087897;28;19974;-65
2022/11/01 10:42:54;;;;;;;;;;;;;;;2.16;62.22;99711.94;5088985;28;19957;-66
2022/11/01 10:45:22;;;;;;;;;;;;;;;2.16;62.47;99704.69;5089629;28;19948;-66
2022/11/01 10:47:50;;;;;;;;;;;;;;;2.17;62.38;99706.34;5097848;28;20380;-66
2022/11/01 10:50:17;;;;;;;;;;;;;;;2.17;62.45;99708.19;5087174;28;19927;-66
2022/11/01 10:52:48;;;;;;;;;;;;;;;2.15;62.38;99711.13;5087975;28;19967;-66
2022/11/01 10:55:16;;;;;;;;;;;;;;;2.15;62.30;99719.22;5088864;28;20006;-66
2022/11/01 10:57:48;;;;;;;;;;;;;;;2.16;62.46;99711.94;5068810;28;19928;-66
2022/11/01 11:00:15;;;;;;;;;;;;;;;2.20;62.20;99711.28;5085574;28;19928;-66
2022/11/01 11:02:42;;;;;;;;;;;;;;;2.27;62.19;99722.03;5084668;28;20009;-66
2022/11/01 11:05:12;;;;;;;;;;;;;;;2.33;61.75;99714.91;5084739;28;20275;-66
2022/11/01 11:07:38;;;;;;;;;;;;;;;2.31;61.22;99712.44;5085736;28;19928;-66
2022/11/01 11:10:10;;;;;;;;;;;;;;;2.28;61.46;99717.47;5087996;28;19928;-66
2022/11/01 11:12:36;;;;;;;;;;;;;;;2.21;61.23;99704.84;5084416;28;20407;-66
2022/11/01 11:15:09;;;;;;;;;;;;;;;2.11;61.43;99712.63;5076993;28;19932;-66
2022/11/01 11:17:38;;;;;;;;;;;;;;;1.95;61.88;99719.41;5087514;28;19970;-66
2022/11/01 11:20:05;;;;;;;;;;;;;;;1.82;62.47;99715.75;5099214;28;20395;-66
2022/11/01 11:22:35;;;;;;;;;;;;;;;1.79;62.56;99721.59;5105506;28;19927;-66
2022/11/01 11:25:01;;;;;;;;;;;;;;;1.76;62.99;99727.41;5102078;28;20299;-66
2022/11/01 11:27:29;;;;;;;;;;;;;;;1.65;63.35;99701.16;4749737;27;9999668;-66
2022/11/01 11:29:56;;;;;;;;;;;;;;;1.81;63.39;99724.06;5098003;28;19927;-63
2022/11/01 11:32:25;;;;;;;;;;;;;;;1.80;63.40;99725.94;5080570;28;20284;-63
2022/11/01 11:34:54;;;;;;;;;;;;;;;1.79;63.09;99726.97;5096156;28;20366;-66
2022/11/01 11:37:21;;;;;;;;;;;;;;;1.79;62.69;99726.13;5092875;28;20022;-66
2022/11/01 11:40:16;;;;;;;;;;;;;;;1.79;62.71;99724.28;5054101;28;20207;-66
2022/11/01 11:42:43;;;;;;;;;;;;;;;1.83;62.65;99724.69;5102118;28;19935;-66
2022/11/01 11:45:20;;;;;;;;;;;;;;;1.81;62.84;99719.50;5104895;28;19950;-66
2022/11/01 11:47:47;;;;;;;;;;;;;;;1.85;62.66;99722.59;5104341;28;19935;-66
2022/11/01 11:50:34;;;;;;;;;;;;;;;1.89;62.65;99725.69;5103779;28;20413;-66
2022/11/01 11:53:06;;;;;;;;;;;;;;;1.95;62.37;99722.09;5113332;28;19935;-66
2022/11/01 11:55:36;;;;;;;;;;;;;;;2.10;61.69;99724.44;5085587;28;20323;-66
2022/11/01 11:58:04;;;;;;;;;;;;;;;2.28;61.37;99720.16;5104533;28;20026;-66
2022/11/01 12:00:32;;;;;;;;;;;;;;;2.23;60.62;99718.94;5104636;28;19928;-66
2022/11/01 12:03:00;;;;;;;;;;;;;;;2.10;61.29;99727.16;5105622;28;19928;-66
2022/11/01 12:05:27;;;;;;;;;;;;;;;2.08;61.37;99726.53;5099095;28;19934;-66
2022/11/01 12:07:54;;;;;;;;;;;;;;;2.01;61.16;99721.19;5104963;28;20361;-66
2022/11/01 12:10:27;;;;;;;;;;;;;;;1.94;61.48;99713.16;5104863;28;19927;-64
2022/11/01 12:12:55;;;;;;;;;;;;;;;1.91;61.41;99719.00;5104374;28;19953;-66
2022/11/01 12:15:25;;;;;;;;;;;;;;;1.89;61.54;99721.09;5083646;28;19931;-67
2022/11/01 12:17:52;;;;;;;;;;;;;;;1.93;61.79;99719.59;5097113;28;20034;-66
2022/11/01 12:20:20;;;;;;;;;;;;;;;1.98;61.81;99719.78;5100263;28;19931;-66
2022/11/01 12:22:49;;;;;;;;;;;;;;;2.00;61.66;99714.16;5100248;28;19932;-64
2022/11/01 12:25:16;;;;;;;;;;;;;;;2.08;61.73;99716.59;5098105;28;19934;-66
2022/11/01 12:27:46;;;;;;;;;;;;;;;2.01;60.96;99723.91;5099369;28;19932;-66
2022/11/01 12:30:15;;;;;;;;;;;;;;;1.87;61.41;99716.97;5094543;28;19966;-66
2022/11/01 12:32:47;;;;;;;;;;;;;;;1.83;61.89;99720.09;5098599;28;19935;-65
2022/11/01 12:35:18;;;;;;;;;;;;;;;1.78;61.99;99717.25;5100115;28;19935;-66
2022/11/01 12:37:52;;;;;;;;;;;;;;;1.72;62.12;99728.91;5102473;28;20375;-66
2022/11/01 12:40:22;;;;;;;;;;;;;;;1.70;62.18;99729.13;5100104;28;19948;-65
2022/11/01 12:42:50;;;;;;;;;;;;;;;1.68;62.50;99728.50;5102106;28;19974;-66
2022/11/01 12:45:21;;;;;;;;;;;;;;;1.68;62.59;99733.06;5103244;28;20024;-66
2022/11/01 12:47:49;;;;;;;;;;;;;;;1.64;62.70;99742.63;5082261;28;19938;-66
2022/11/01 12:50:17;;;;;;;;;;;;;;;1.60;62.97;99738.72;5102646;28;20802;-64
2022/11/01 12:52:47;;;;;;;;;;;;;;;1.52;62.93;99737.13;5080697;28;19975;-64
2022/11/01 12:55:18;;;;;;;;;;;;;;;1.47;62.79;99740.47;5103349;28;20020;-66
2022/11/01 12:57:44;;;;;;;;;;;;;;;1.42;62.85;99743.78;5101047;28;20002;-66
2022/11/01 13:00:14;;;;;;;;;;;;;;;1.42;62.85;99738.41;5068351;28;20359;-66
2022/11/01 13:02:46;;;;;;;;;;;;;;;1.36;62.97;99733.06;5104827;28;19927;-64
2022/11/01 13:05:15;;;;;;;;;;;;;;;1.31;63.05;99736.38;5098271;28;19934;-64
2022/11/01 13:07:46;;;;;;;;;;;;;;;1.26;63.41;99737.06;5099648;28;19958;-64